Time;durP1;ratioP1;P1;durP2;ratioP2;P2;SDS_P1;SDS_P2;PMS_P1;PMS_P2;Temp;Humidity;BMP_temperature;BMP_pressure;BME280_temperature;BME280_humidity;BME280_pressure;Samples;Min_cycle;Max_cycle;Signal;HPM_P1;HPM_P2
2022/07/15 00:02:07;;;;;;;6.70;3.63;;;18.00;63.10;;;;;;4957386;28;20255;-89
2022/07/15 00:04:33;;;;;;;9.68;3.63;;;18.00;63.00;;;;;;4958568;28;20184;-90
2022/07/15 00:06:59;;;;;;;8.13;3.00;;;18.00;63.20;;;;;;4959086;28;20212;-89
2022/07/15 00:10:13;;;;;;;5.78;2.60;;;18.00;63.40;;;;;;4958543;28;20259;-90
2022/07/15 00:12:11;;;;;;;9.27;3.45;;;17.90;63.40;;;;;;4958585;28;20171;-89
2022/07/15 00:14:38;;;;;;;8.50;2.80;;;17.90;63.40;;;;;;4957544;28;20243;-89
2022/07/15 00:17:04;;;;;;;7.22;2.55;;;18.00;62.70;;;;;;4956578;28;20200;-89
2022/07/15 00:19:30;;;;;;;6.00;2.75;;;18.00;62.70;;;;;;4958033;28;20275;-91
2022/07/15 00:21:56;;;;;;;7.22;2.83;;;17.90;63.50;;;;;;4961548;28;20201;-89
2022/07/15 00:24:23;;;;;;;6.55;2.65;;;17.90;63.60;;;;;;4976716;28;20187;-90
2022/07/15 00:26:50;;;;;;;9.30;3.15;;;17.90;63.50;;;;;;4976272;28;20254;-89
2022/07/15 00:29:16;;;;;;;6.50;3.22;;;17.90;63.10;;;;;;4976605;28;20180;-89
2022/07/15 00:31:42;;;;;;;4.53;2.33;;;17.90;63.30;;;;;;4976613;28;20206;-89
2022/07/15 00:34:08;;;;;;;6.00;2.85;;;17.90;62.90;;;;;;4976504;28;20202;-89
2022/07/15 00:36:34;;;;;;;8.40;2.70;;;17.90;63.30;;;;;;4976319;28;20760;-89
2022/07/15 00:39:00;;;;;;;7.13;2.00;;;17.80;62.90;;;;;;4977755;28;20286;-89
2022/07/15 00:41:25;;;;;;;4.40;2.53;;;17.80;63.20;;;;;;4977264;28;20223;-89
2022/07/15 00:43:51;;;;;;;4.27;2.40;;;17.80;63.10;;;;;;4977617;28;20237;-89
2022/07/15 00:46:19;;;;;;;5.30;2.47;;;17.80;63.10;;;;;;4978555;28;20266;-90
2022/07/15 00:48:45;;;;;;;7.55;2.60;;;17.70;63.20;;;;;;4977749;28;20275;-89
2022/07/15 00:51:11;;;;;;;5.07;2.03;;;17.70;63.30;;;;;;4976355;28;20184;-89
2022/07/15 00:53:39;;;;;;;8.57;2.77;;;17.70;63.60;;;;;;4978553;28;20191;-89
2022/07/15 00:56:09;;;;;;;4.78;1.92;;;17.70;63.50;;;;;;4979278;28;20200;-89
2022/07/15 00:58:41;;;;;;;6.63;2.33;;;17.70;63.40;;;;;;4979389;28;20187;-89
2022/07/15 01:01:08;;;;;;;8.77;2.45;;;17.70;63.40;;;;;;4960392;28;20183;-89
2022/07/15 01:03:34;;;;;;;5.93;2.47;;;17.70;63.50;;;;;;4976431;28;20225;-90
2022/07/15 01:06:01;;;;;;;5.53;2.53;;;17.70;63.60;;;;;;4977071;28;20207;-90
2022/07/15 01:08:27;;;;;;;11.63;2.80;;;17.60;63.70;;;;;;4970181;28;20255;-89
2022/07/15 01:10:53;;;;;;;6.77;2.50;;;17.60;64.10;;;;;;4962996;29;20176;-90
2022/07/15 01:13:21;;;;;;;7.40;3.25;;;17.60;63.80;;;;;;4971404;28;20412;-89
2022/07/15 01:15:48;;;;;;;9.23;2.97;;;17.70;63.70;;;;;;4974244;28;20208;-90
2022/07/15 01:18:14;;;;;;;4.75;2.40;;;17.60;64.10;;;;;;4977339;28;20240;-90
2022/07/15 01:20:43;;;;;;;6.33;2.57;;;17.70;63.70;;;;;;4981138;28;20199;-91
2022/07/15 01:23:09;;;;;;;8.10;3.03;;;17.60;64.30;;;;;;4996820;28;20890;-89
2022/07/15 01:25:35;;;;;;;6.82;2.65;;;17.60;64.60;;;;;;4997565;28;20204;-91
2022/07/15 01:28:01;;;;;;;5.20;2.63;;;17.60;64.70;;;;;;4998202;28;20269;-91
2022/07/15 01:30:27;;;;;;;6.10;2.55;;;17.60;64.80;;;;;;4997427;28;20427;-91
2022/07/15 01:32:54;;;;;;;4.97;2.33;;;17.50;65.10;;;;;;4986727;28;20679;-90
2022/07/15 01:35:19;;;;;;;6.03;2.72;;;17.50;65.10;;;;;;4980220;28;20564;-89
2022/07/15 01:37:45;;;;;;;8.17;2.63;;;17.50;65.30;;;;;;4980033;28;20190;-89
2022/07/15 01:40:12;;;;;;;8.93;3.00;;;17.50;65.30;;;;;;4980692;28;20195;-89
2022/07/15 01:42:38;;;;;;;7.38;2.55;;;17.50;65.90;;;;;;4983431;28;20459;-89
2022/07/15 01:45:05;;;;;;;5.97;2.47;;;17.60;65.20;;;;;;4984907;28;20176;-89
2022/07/15 01:47:32;;;;;;;8.95;3.05;;;17.50;65.50;;;;;;4989987;28;20184;-90
2022/07/15 01:49:58;;;;;;;6.18;2.50;;;17.50;65.40;;;;;;4990863;28;20557;-90
2022/07/15 01:52:24;;;;;;;3.03;1.95;;;17.50;66.00;;;;;;4985750;28;20183;-89
2022/07/15 01:54:51;;;;;;;7.05;2.60;;;17.50;65.80;;;;;;4980456;28;20184;-89
2022/07/15 01:57:17;;;;;;;6.43;3.25;;;17.60;65.20;;;;;;4978866;28;20238;-90
2022/07/15 01:59:43;;;;;;;11.10;3.22;;;17.60;65.40;;;;;;4965203;28;20221;-89
2022/07/15 02:02:09;;;;;;;5.30;2.33;;;17.40;65.90;;;;;;4959904;28;20200;-90
2022/07/15 02:04:36;;;;;;;6.13;2.83;;;17.40;66.30;;;;;;4960375;28;20185;-89
2022/07/15 02:07:02;;;;;;;6.47;2.67;;;17.40;66.00;;;;;;4962303;28;20205;-89
2022/07/15 02:09:28;;;;;;;7.57;2.80;;;17.40;66.10;;;;;;4966480;28;20207;-90
2022/07/15 02:11:54;;;;;;;6.33;2.50;;;17.40;66.10;;;;;;4966101;28;20653;-90
2022/07/15 02:14:20;;;;;;;4.90;2.50;;;17.40;65.70;;;;;;4962235;28;20181;-89
2022/07/15 02:16:45;;;;;;;9.18;3.53;;;17.40;65.40;;;;;;4959548;28;20208;-89
2022/07/15 02:19:11;;;;;;;7.67;2.77;;;17.40;65.60;;;;;;4963128;28;20211;-90
2022/07/15 02:21:37;;;;;;;6.03;2.93;;;17.40;66.10;;;;;;4967021;28;20177;-89
2022/07/15 02:24:03;;;;;;;6.03;3.00;;;17.40;66.30;;;;;;4964245;28;20256;-90
2022/07/15 02:26:29;;;;;;;6.30;2.70;;;17.30;66.50;;;;;;4960707;28;20716;-91
2022/07/15 02:28:55;;;;;;;6.03;2.40;;;17.30;66.40;;;;;;4944658;29;20188;-91
2022/07/15 02:31:21;;;;;;;6.03;2.77;;;17.30;66.80;;;;;;4961485;28;20184;-90
2022/07/15 02:33:47;;;;;;;9.63;3.03;;;17.30;66.90;;;;;;4960501;28;20428;-90
2022/07/15 02:36:13;;;;;;;10.52;3.15;;;17.30;66.70;;;;;;4970765;28;20718;-90
2022/07/15 02:38:39;;;;;;;8.37;2.47;;;17.30;66.60;;;;;;4962397;28;20204;-90
2022/07/15 02:41:05;;;;;;;5.75;2.40;;;17.30;66.80;;;;;;4971564;28;20435;-90
2022/07/15 02:43:41;;;;;;;7.63;2.30;;;17.30;66.70;;;;;;4976791;28;20200;-90
2022/07/15 02:46:09;;;;;;;4.95;2.30;;;17.30;66.40;;;;;;4964863;28;20196;-89
2022/07/15 02:48:35;;;;;;;5.35;2.58;;;17.30;66.50;;;;;;4977040;28;20625;-90
2022/07/15 02:51:00;;;;;;;7.05;2.63;;;17.30;67.10;;;;;;4976020;28;20161;-90
2022/07/15 02:53:28;;;;;;;7.63;2.47;;;17.20;67.00;;;;;;4990037;28;20191;-90
2022/07/15 02:55:55;;;;;;;3.85;2.50;;;17.20;67.00;;;;;;5000081;28;20211;-91
2022/07/15 02:58:22;;;;;;;5.13;2.95;;;17.20;67.00;;;;;;4997639;28;20180;-90
2022/07/15 03:01:00;;;;;;;6.82;3.25;;;17.20;67.00;;;;;;4998959;28;20226;-90
2022/07/15 03:03:28;;;;;;;4.78;2.42;;;17.30;66.20;;;;;;4999400;28;20290;-90
2022/07/15 03:05:57;;;;;;;4.45;2.63;;;17.20;66.40;;;;;;4999152;28;20219;-91
2022/07/15 03:08:23;;;;;;;5.72;2.33;;;17.20;66.50;;;;;;4999131;28;20186;-90
2022/07/15 03:10:49;;;;;;;5.70;3.42;;;17.20;66.40;;;;;;4999110;28;20180;-91
2022/07/15 03:13:15;;;;;;;7.27;3.10;;;17.20;66.20;;;;;;4994537;28;20203;-90
2022/07/15 03:15:41;;;;;;;6.28;2.78;;;17.20;66.40;;;;;;4980212;28;20447;-90
2022/07/15 03:18:07;;;;;;;7.53;2.33;;;17.20;66.70;;;;;;4979911;28;20678;-90
2022/07/15 03:20:33;;;;;;;10.33;2.50;;;17.20;66.40;;;;;;4979988;28;20199;-89
2022/07/15 03:22:58;;;;;;;5.13;2.25;;;17.20;65.50;;;;;;4983185;28;20542;-90
2022/07/15 03:25:24;;;;;;;4.87;2.20;;;17.20;65.70;;;;;;4984679;28;20278;-90
2022/07/15 03:27:50;;;;;;;3.47;2.30;;;17.20;66.00;;;;;;4998462;28;20183;-91
2022/07/15 03:30:16;;;;;;;4.30;2.20;;;17.20;66.40;;;;;;4999364;28;20191;-91
2022/07/15 03:32:42;;;;;;;7.68;2.72;;;17.20;66.60;;;;;;4999341;28;20203;-91
2022/07/15 03:35:08;;;;;;;5.13;2.80;;;17.20;66.00;;;;;;4999342;28;20215;-90
2022/07/15 03:37:34;;;;;;;3.20;2.28;;;17.30;65.70;;;;;;4998546;28;20187;-90
2022/07/15 03:40:00;;;;;;;4.63;2.50;;;17.20;65.80;;;;;;4997277;28;20179;-89
2022/07/15 03:42:26;;;;;;;3.97;2.30;;;17.30;66.10;;;;;;4977845;28;20199;-90
2022/07/15 03:44:51;;;;;;;5.83;2.40;;;17.30;66.00;;;;;;4977604;28;20275;-90
2022/07/15 03:47:17;;;;;;;4.70;2.80;;;17.30;65.90;;;;;;4977510;28;20200;-89
2022/07/15 03:49:43;;;;;;;4.60;2.03;;;17.30;65.70;;;;;;4981685;28;20576;-89
2022/07/15 03:52:09;;;;;;;7.53;3.53;;;17.20;66.10;;;;;;4977598;28;20182;-90
2022/07/15 03:54:34;;;;;;;6.90;2.50;;;17.20;66.60;;;;;;4977401;28;20203;-90
2022/07/15 03:57:00;;;;;;;5.00;1.90;;;17.30;65.80;;;;;;4977537;28;20733;-90
2022/07/15 03:59:26;;;;;;;5.93;2.10;;;17.30;65.60;;;;;;4970526;28;20184;-90
2022/07/15 04:01:52;;;;;;;3.90;2.20;;;17.30;65.80;;;;;;4957976;28;20243;-89
2022/07/15 04:04:19;;;;;;;7.05;2.60;;;17.30;65.80;;;;;;4957500;29;20184;-90
2022/07/15 04:06:45;;;;;;;4.82;2.15;;;17.30;66.20;;;;;;4957421;28;20339;-90
2022/07/15 04:09:12;;;;;;;4.87;2.60;;;17.30;65.90;;;;;;4971693;28;20200;-89
2022/07/15 04:11:41;;;;;;;7.40;1.95;;;17.40;66.10;;;;;;4979055;28;20432;-89
2022/07/15 04:14:17;;;;;;;4.95;2.10;;;17.40;65.90;;;;;;4988742;28;20184;-90
2022/07/15 04:16:44;;;;;;;7.70;2.90;;;17.40;65.60;;;;;;4986894;28;20295;-90
2022/07/15 04:19:10;;;;;;;4.93;2.20;;;17.50;65.80;;;;;;4988057;28;20238;-90
2022/07/15 04:21:35;;;;;;;5.50;2.27;;;17.50;65.40;;;;;;4977714;28;20279;-90
2022/07/15 04:24:01;;;;;;;9.07;2.70;;;17.50;65.60;;;;;;4989445;28;20223;-89
2022/07/15 04:26:27;;;;;;;7.37;2.30;;;17.60;65.40;;;;;;4987242;28;20498;-89
2022/07/15 04:28:53;;;;;;;8.02;3.20;;;17.60;65.00;;;;;;4977775;28;20180;-88
2022/07/15 04:31:19;;;;;;;6.93;2.70;;;17.70;64.80;;;;;;4976733;28;20641;-88
2022/07/15 04:33:44;;;;;;;6.80;2.20;;;17.60;65.40;;;;;;4976700;28;20266;-90
2022/07/15 04:36:10;;;;;;;10.33;2.80;;;17.50;65.90;;;;;;4976759;28;20216;-89
2022/07/15 04:38:36;;;;;;;4.20;2.27;;;17.60;65.70;;;;;;4974891;28;20215;-89
2022/07/15 04:41:01;;;;;;;6.80;2.73;;;17.70;65.00;;;;;;4974825;28;20183;-89
2022/07/15 04:43:27;;;;;;;5.40;3.00;;;17.90;64.00;;;;;;4975597;28;20196;-89
2022/07/15 04:45:53;;;;;;;4.63;1.70;;;18.00;63.50;;;;;;4976203;28;20196;-89
2022/07/15 04:51:04;;;;;;;3.70;1.88;;;18.10;63.00;;;;;;4960027;28;20247;-89
2022/07/15 04:53:29;;;;;;;4.20;2.05;;;18.10;63.00;;;;;;4961062;28;20248;-90
2022/07/15 04:55:55;;;;;;;3.83;2.07;;;18.10;63.20;;;;;;4958125;28;20212;-91
2022/07/15 04:58:22;;;;;;;6.63;2.30;;;18.20;62.60;;;;;;4961119;28;20191;-89
2022/07/15 05:00:48;;;;;;;10.05;2.47;;;18.20;62.60;;;;;;4980897;28;20180;-91
2022/07/15 05:03:14;;;;;;;6.22;2.15;;;18.10;63.40;;;;;;4979936;28;20204;-89
2022/07/15 05:05:41;;;;;;;4.72;2.90;;;18.10;63.60;;;;;;4984816;28;20195;-89
2022/07/15 05:08:07;;;;;;;5.18;2.10;;;18.10;62.80;;;;;;4979242;28;20172;-89
2022/07/15 05:10:33;;;;;;;7.23;2.67;;;18.10;62.80;;;;;;4969328;28;20202;-88
2022/07/15 05:12:58;;;;;;;3.80;2.23;;;18.20;62.40;;;;;;4972892;28;20229;-89
2022/07/15 05:15:25;;;;;;;9.73;1.90;;;18.20;61.90;;;;;;4967584;28;20208;-88
2022/07/15 05:17:50;;;;;;;6.00;2.15;;;18.10;63.00;;;;;;4973346;28;20499;-88
2022/07/15 05:20:16;;;;;;;8.93;2.63;;;18.10;62.80;;;;;;4979411;28;20192;-88
2022/07/15 05:22:42;;;;;;;5.27;2.43;;;18.00;63.00;;;;;;4979167;28;20565;-89
2022/07/15 05:25:08;;;;;;;14.47;5.20;;;18.00;63.50;;;;;;4994581;28;20199;-89
2022/07/15 05:27:34;;;;;;;7.82;3.30;;;18.30;63.20;;;;;;4993838;28;20191;-89
2022/07/15 05:30:00;;;;;;;7.20;2.03;;;19.20;59.90;;;;;;4992578;28;20243;-89
2022/07/15 05:32:26;;;;;;;5.60;2.00;;;20.10;56.60;;;;;;4983602;28;20207;-89
2022/07/15 05:34:52;;;;;;;4.97;1.80;;;20.90;54.70;;;;;;4981218;28;20501;-89
2022/07/15 05:37:17;;;;;;;3.20;1.50;;;21.80;51.60;;;;;;4983701;28;20251;-90
2022/07/15 05:39:56;;;;;;;5.67;1.70;;;22.60;47.90;;;;;;4999441;28;20238;-89
2022/07/15 05:42:22;;;;;;;3.60;1.60;;;23.00;46.60;;;;;;5000970;28;20242;-90
2022/07/15 05:44:48;;;;;;;3.20;1.80;;;23.10;46.10;;;;;;5000100;28;20546;-90
2022/07/15 05:47:15;;;;;;;7.00;2.03;;;23.10;45.70;;;;;;5000044;28;20443;-92
2022/07/15 05:49:44;;;;;;;2.63;1.50;;;22.50;47.00;;;;;;4987180;28;20661;-89
2022/07/15 05:52:12;;;;;;;5.43;1.70;;;22.80;47.00;;;;;;4966819;29;20483;-90
2022/07/15 05:54:38;;;;;;;5.27;1.60;;;23.00;47.40;;;;;;4966653;28;20432;-90
2022/07/15 05:57:04;;;;;;;2.87;1.67;;;23.40;45.60;;;;;;4972959;29;20447;-90
2022/07/15 05:59:30;;;;;;;6.10;2.00;;;23.80;43.70;;;;;;4971997;28;20263;-90
2022/07/15 06:02:28;;;;;;;2.53;1.47;;;23.90;42.10;;;;;;4979513;28;20191;-90
2022/07/15 06:04:54;;;;;;;6.23;1.67;;;23.60;44.30;;;;;;4979078;28;20411;-90
2022/07/15 06:07:20;;;;;;;3.63;2.20;;;23.70;42.20;;;;;;4975154;28;20435;-91
2022/07/15 06:09:50;;;;;;;3.03;1.60;;;23.30;42.10;;;;;;4979791;28;20199;-89
2022/07/15 06:12:16;;;;;;;4.50;1.33;;;23.10;42.30;;;;;;4978638;28;20482;-91
2022/07/15 06:14:42;;;;;;;4.03;1.77;;;22.80;42.70;;;;;;4978040;28;20455;-92
2022/07/15 06:17:09;;;;;;;3.67;1.50;;;22.70;43.90;;;;;;4967393;28;20539;-92
2022/07/15 06:19:35;;;;;;;4.40;2.00;;;22.70;43.30;;;;;;4959797;29;20783;-92
2022/07/15 06:22:01;;;;;;;5.97;1.50;;;22.70;42.90;;;;;;4960308;28;20431;-92
2022/07/15 06:24:28;;;;;;;3.80;1.70;;;22.70;43.20;;;;;;4960926;28;20428;-92
2022/07/15 06:26:55;;;;;;;3.10;1.30;;;22.60;43.30;;;;;;4959624;28;20842;-91
2022/07/15 06:29:21;;;;;;;8.87;2.60;;;22.70;43.00;;;;;;4963811;28;20555;-91
2022/07/15 06:31:46;;;;;;;3.87;1.77;;;22.60;44.10;;;;;;4962052;28;20928;-91
2022/07/15 06:34:12;;;;;;;6.20;1.50;;;22.80;45.20;;;;;;4965843;28;20427;-92
2022/07/15 06:36:38;;;;;;;6.30;1.40;;;23.30;43.60;;;;;;4972036;28;20241;-90
2022/07/15 06:39:04;;;;;;;5.53;1.60;;;22.90;43.50;;;;;;4967696;28;20204;-92
2022/07/15 06:41:31;;;;;;;3.30;1.50;;;22.70;43.70;;;;;;4970117;28;20417;-91
2022/07/15 06:43:58;;;;;;;1.60;1.20;;;23.20;42.70;;;;;;4971928;28;20584;-91
2022/07/15 06:46:23;;;;;;;7.03;1.37;;;23.00;43.20;;;;;;4970578;28;20447;-91
2022/07/15 06:48:49;;;;;;;3.93;1.30;;;22.90;44.00;;;;;;4966263;28;20872;-91
2022/07/15 06:51:15;;;;;;;2.83;1.20;;;22.30;45.80;;;;;;4963201;28;20184;-91
2022/07/15 06:53:41;;;;;;;7.63;1.73;;;23.20;44.00;;;;;;4964517;28;20185;-90
2022/07/15 06:56:07;;;;;;;5.93;2.00;;;23.60;43.00;;;;;;4962323;28;20455;-90
2022/07/15 06:58:33;;;;;;;4.80;1.40;;;23.40;43.10;;;;;;4962301;28;20432;-91
2022/07/15 07:01:02;;;;;;;3.63;1.43;;;22.80;44.10;;;;;;4946974;29;20216;-90
2022/07/15 07:03:29;;;;;;;3.17;1.20;;;22.80;45.50;;;;;;4963317;28;20252;-92
2022/07/15 07:05:54;;;;;;;6.43;1.70;;;22.50;44.90;;;;;;4960336;28;20451;-91
2022/07/15 07:08:22;;;;;;;3.60;1.40;;;22.30;45.80;;;;;;4961895;28;20424;-90
2022/07/15 07:10:48;;;;;;;4.73;2.27;;;22.50;45.80;;;;;;4962167;28;20176;-90
2022/07/15 07:13:13;;;;;;;2.80;1.73;;;22.20;45.80;;;;;;4962326;29;20423;-90
2022/07/15 07:15:39;;;;;;;2.03;1.40;;;22.40;46.00;;;;;;4970112;28;20212;-90
2022/07/15 07:18:05;;;;;;;5.67;1.83;;;22.40;45.10;;;;;;4970897;28;20192;-90
2022/07/15 07:20:31;;;;;;;3.10;1.10;;;22.90;44.70;;;;;;4962386;29;20181;-91
2022/07/15 07:22:57;;;;;;;3.40;1.60;;;22.80;44.60;;;;;;4962474;29;20240;-91
2022/07/15 07:25:23;;;;;;;5.00;1.53;;;23.10;43.20;;;;;;4962704;29;20444;-91
2022/07/15 07:27:49;;;;;;;5.43;1.57;;;23.20;42.00;;;;;;4979544;28;20199;-89
2022/07/15 07:30:15;;;;;;;5.23;1.17;;;23.40;40.40;;;;;;4982993;28;20415;-91
2022/07/15 07:32:41;;;;;;;4.67;1.43;;;22.60;42.40;;;;;;4980142;28;20482;-91
2022/07/15 07:35:08;;;;;;;2.90;1.40;;;22.20;44.00;;;;;;4978304;28;20419;-91
2022/07/15 07:37:38;;;;;;;5.30;1.60;;;22.10;45.40;;;;;;4977545;28;20435;-91
2022/07/15 07:40:06;;;;;;;2.00;1.40;;;22.00;45.10;;;;;;4979756;28;20418;-91
2022/07/15 07:42:32;;;;;;;10.63;1.20;;;22.00;46.50;;;;;;4978270;28;20893;-91
2022/07/15 07:44:59;;;;;;;2.83;1.30;;;21.70;46.00;;;;;;4978835;28;20447;-91
2022/07/15 07:47:25;;;;;;;4.03;1.30;;;21.80;45.10;;;;;;4977808;28;20606;-91
2022/07/15 07:49:51;;;;;;;3.67;1.60;;;21.40;46.40;;;;;;4990466;28;20423;-91
2022/07/15 07:52:17;;;;;;;4.57;1.50;;;21.10;47.60;;;;;;4996992;28;20495;-90
2022/07/15 07:54:43;;;;;;;4.60;1.50;;;20.90;46.70;;;;;;4995990;28;20454;-91
2022/07/15 07:57:10;;;;;;;2.63;1.20;;;20.50;47.00;;;;;;4997153;28;20202;-91
2022/07/15 07:59:36;;;;;;;5.33;1.57;;;20.10;49.10;;;;;;4997405;28;20479;-91
2022/07/15 08:02:03;;;;;;;6.10;1.60;;;20.10;50.30;;;;;;4994781;28;20420;-91
2022/07/15 08:04:30;;;;;;;4.40;1.50;;;20.40;48.20;;;;;;4988990;28;20434;-91
2022/07/15 08:06:56;;;;;;;5.50;1.87;;;20.50;47.60;;;;;;4985479;28;20447;-91
2022/07/15 08:09:26;;;;;;;2.97;1.43;;;20.50;47.00;;;;;;4986795;28;20419;-91
2022/07/15 08:11:52;;;;;;;4.43;1.43;;;20.50;47.30;;;;;;4986986;28;20427;-92
2022/07/15 08:14:18;;;;;;;4.03;1.40;;;20.40;48.80;;;;;;4983963;28;20425;-90
2022/07/15 08:16:45;;;;;;;6.00;1.33;;;20.30;48.10;;;;;;4982200;28;20200;-91
2022/07/15 08:19:16;;;;;;;2.63;1.23;;;20.40;47.80;;;;;;4981149;28;20419;-91
2022/07/15 08:21:45;;;;;;;6.20;1.37;;;20.40;48.30;;;;;;4977800;28;20418;-91
2022/07/15 08:24:12;;;;;;;3.00;1.50;;;20.60;47.80;;;;;;4977159;28;20423;-91
2022/07/15 08:26:39;;;;;;;3.67;1.50;;;20.60;49.60;;;;;;4976792;28;20825;-91
2022/07/15 08:29:05;;;;;;;6.17;1.20;;;20.60;48.40;;;;;;4980882;28;20538;-91
2022/07/15 08:31:32;;;;;;;1.77;1.33;;;20.80;47.50;;;;;;4980393;28;20438;-91
2022/07/15 08:33:57;;;;;;;1.63;1.20;;;20.80;47.10;;;;;;4980068;28;20415;-91
2022/07/15 08:36:23;;;;;;;4.67;1.80;;;20.80;47.00;;;;;;4980800;28;20466;-91
2022/07/15 08:38:49;;;;;;;3.20;1.60;;;20.90;46.60;;;;;;4979508;28;20190;-90
2022/07/15 08:41:15;;;;;;;6.63;1.17;;;20.90;46.50;;;;;;4980375;28;20190;-91
2022/07/15 08:43:41;;;;;;;3.60;1.40;;;20.90;46.40;;;;;;4981298;28;21028;-91
2022/07/15 08:46:09;;;;;;;3.53;1.30;;;20.80;46.20;;;;;;4983555;28;20435;-91
2022/07/15 08:48:37;;;;;;;3.80;1.13;;;20.70;47.30;;;;;;4986890;28;20422;-91
2022/07/15 08:51:05;;;;;;;3.27;1.20;;;20.50;47.40;;;;;;4976192;28;20775;-91
2022/07/15 08:53:31;;;;;;;1.70;1.13;;;20.70;46.60;;;;;;4963227;28;20428;-92
2022/07/15 08:55:58;;;;;;;5.50;1.70;;;20.90;46.20;;;;;;4960467;29;20444;-91
2022/07/15 08:58:24;;;;;;;4.40;1.73;;;21.00;45.50;;;;;;4965970;29;20515;-91
2022/07/15 09:00:50;;;;;;;4.30;1.40;;;21.00;46.60;;;;;;4960165;29;20432;-91
2022/07/15 09:03:16;;;;;;;2.80;1.00;;;20.80;47.60;;;;;;4957839;29;20478;-92
2022/07/15 09:05:42;;;;;;;5.47;1.37;;;20.70;48.30;;;;;;4968193;28;20450;-92
2022/07/15 09:08:11;;;;;;;3.23;1.10;;;20.60;48.60;;;;;;4974960;28;20187;-91
2022/07/15 09:11:10;;;;;;;3.23;1.20;;;20.40;46.50;;;;;;4975058;28;20184;-92
2022/07/15 09:13:38;;;;;;;2.53;1.00;;;20.40;45.80;;;;;;4976708;28;20451;-91
2022/07/15 09:16:10;;;;;;;4.10;1.20;;;20.30;46.00;;;;;;4981026;28;20442;-92
2022/07/15 09:18:43;;;;;;;1.43;0.90;;;20.50;45.80;;;;;;4982081;28;20522;-92
2022/07/15 09:21:32;;;;;;;1.30;0.90;;;20.70;44.20;;;;;;4964789;28;20407;-91
2022/07/15 09:24:17;;;;;;;2.27;1.20;;;20.60;45.20;;;;;;4980359;28;20455;-91
2022/07/15 09:26:43;;;;;;;4.30;1.30;;;20.70;44.90;;;;;;4978587;28;20439;-91
2022/07/15 09:37:58;;;;;;;4.10;1.07;;;20.80;42.00;;;;;;4977556;28;20430;-91
2022/07/15 09:40:24;;;;;;;3.00;0.90;;;20.80;42.90;;;;;;5026908;23;20515;-86
2022/07/15 09:43:05;;;;;;;2.87;1.17;;;20.80;43.20;;;;;;5012270;28;20996;-86
2022/07/15 09:45:32;;;;;;;2.43;1.30;;;21.00;43.30;;;;;;5014019;28;20167;-87
2022/07/15 09:48:14;;;;;;;2.40;1.43;;;21.00;43.80;;;;;;5017033;28;20417;-86
2022/07/15 09:50:40;;;;;;;2.30;1.00;;;21.00;43.90;;;;;;5023224;28;20433;-86
2022/07/15 09:53:13;;;;;;;2.77;1.30;;;21.40;44.10;;;;;;5033393;28;20413;-87
2022/07/15 09:55:41;;;;;;;5.23;2.10;;;21.30;42.70;;;;;;5023251;28;20900;-87
2022/07/15 09:58:08;;;;;;;5.43;1.87;;;21.40;43.70;;;;;;5018582;28;20432;-87
2022/07/15 10:00:37;;;;;;;1.90;1.33;;;21.40;43.10;;;;;;5017166;28;20445;-87
2022/07/15 10:03:04;;;;;;;3.63;1.13;;;21.50;43.30;;;;;;5017304;28;20564;-88
2022/07/15 10:05:32;;;;;;;2.80;1.40;;;21.80;43.40;;;;;;5017840;28;20513;-87
2022/07/15 10:08:01;;;;;;;3.30;1.53;;;21.90;42.10;;;;;;5013204;28;20501;-88
2022/07/15 10:10:27;;;;;;;3.23;1.70;;;22.10;42.30;;;;;;4998896;28;20439;-88
2022/07/15 10:13:11;;;;;;;4.13;2.43;;;22.50;41.20;;;;;;5013519;28;20583;-87
2022/07/15 10:16:03;;;;;;;4.00;2.27;;;22.50;42.90;;;;;;5011249;28;20430;-88
2022/07/15 10:18:31;;;;;;;5.90;2.13;;;22.70;43.10;;;;;;5008315;28;20501;-88
2022/07/15 10:21:44;;;;;;;5.03;2.00;;;22.50;42.70;;;;;;5006340;28;20506;-89
2022/07/15 10:24:19;;;;;;;3.37;2.90;;;22.40;42.40;;;;;;5005833;28;20473;-89
2022/07/15 10:27:05;;;;;;;2.53;1.50;;;22.40;42.00;;;;;;4997850;28;20458;-88
2022/07/15 10:29:31;;;;;;;2.50;1.67;;;22.50;41.00;;;;;;4997954;28;20449;-88
2022/07/15 10:31:59;;;;;;;5.70;2.13;;;22.30;40.80;;;;;;4997847;28;20442;-87
2022/07/15 10:34:39;;;;;;;2.27;1.67;;;22.10;41.70;;;;;;4989356;28;20433;-85
2022/07/15 10:37:13;;;;;;;3.33;1.30;;;21.80;41.40;;;;;;5006002;28;20434;-87
2022/07/15 10:39:58;;;;;;;2.50;1.60;;;21.80;42.00;;;;;;4979838;28;20471;-88
2022/07/15 10:42:24;;;;;;;2.70;1.40;;;22.00;42.60;;;;;;4996446;28;20454;-88
2022/07/15 10:45:05;;;;;;;3.03;1.43;;;22.10;43.00;;;;;;5014955;28;20414;-88
2022/07/15 10:47:32;;;;;;;3.40;1.30;;;22.10;43.00;;;;;;5014604;28;20421;-88
2022/07/15 10:49:57;;;;;;;3.73;1.53;;;22.30;41.90;;;;;;5015666;28;20519;-88
2022/07/15 10:52:30;;;;;;;2.60;1.23;;;22.40;41.70;;;;;;5015743;28;20933;-88
2022/07/15 10:54:56;;;;;;;3.33;1.50;;;22.40;41.90;;;;;;5016102;28;20440;-87
2022/07/15 10:57:42;;;;;;;2.83;1.27;;;22.20;41.90;;;;;;5016009;28;20841;-88
2022/07/15 11:00:20;;;;;;;4.63;1.60;;;22.10;40.20;;;;;;5016074;28;20198;-86
2022/07/15 11:03:17;;;;;;;3.30;1.10;;;22.20;41.30;;;;;;5015730;28;20477;-89
2022/07/15 11:05:53;;;;;;;6.30;1.60;;;21.90;40.50;;;;;;5018658;28;20830;-89
2022/07/15 11:08:31;;;;;;;2.90;1.53;;;21.80;40.00;;;;;;5002988;28;20488;-87
2022/07/15 11:11:18;;;;;;;3.13;1.47;;;21.90;40.60;;;;;;4997827;28;20415;-87
2022/07/15 11:13:50;;;;;;;4.00;1.30;;;22.00;40.00;;;;;;5010779;28;20437;-87
2022/07/15 11:16:19;;;;;;;5.20;1.40;;;22.10;40.50;;;;;;5016988;28;20442;-87
2022/07/15 11:18:46;;;;;;;3.20;1.60;;;22.10;41.80;;;;;;4997264;28;21024;-86
2022/07/15 11:21:13;;;;;;;3.50;1.30;;;22.00;41.80;;;;;;4995319;28;20434;-87
2022/07/15 11:23:39;;;;;;;2.33;1.67;;;21.80;41.20;;;;;;4994609;28;20466;-87
2022/07/15 11:26:05;;;;;;;4.37;1.77;;;21.80;41.60;;;;;;4995123;28;20922;-87
2022/07/15 11:28:30;;;;;;;3.23;1.63;;;22.10;41.20;;;;;;4994506;28;20444;-88
2022/07/15 11:30:56;;;;;;;3.30;1.63;;;22.20;42.00;;;;;;4995134;28;20422;-88
2022/07/15 11:33:27;;;;;;;3.47;1.50;;;22.40;42.20;;;;;;4995111;28;20187;-87
2022/07/15 11:35:54;;;;;;;3.00;1.60;;;22.50;42.00;;;;;;4995129;28;20492;-88
2022/07/15 11:38:23;;;;;;;3.07;1.80;;;22.40;40.70;;;;;;4995608;28;20422;-89
2022/07/15 11:46:30;;;;;;;3.60;2.00;;;22.70;39.70;;;;;;4996469;28;20398;-88
2022/07/15 11:48:58;;;;;;;4.23;1.63;;;22.40;39.30;;;;;;4995537;28;20435;-87
2022/07/15 11:51:30;;;;;;;4.67;2.60;;;22.50;39.50;;;;;;4997138;28;20426;-88
2022/07/15 11:53:57;;;;;;;3.63;2.80;;;22.30;39.50;;;;;;4995288;28;20418;-88
2022/07/15 11:56:23;;;;;;;3.80;1.50;;;22.30;40.60;;;;;;4996491;28;20426;-88
2022/07/15 11:58:54;;;;;;;2.03;1.80;;;22.40;40.60;;;;;;4997273;28;20480;-88
2022/07/15 12:01:29;;;;;;;6.13;2.00;;;22.50;40.80;;;;;;4998507;28;20453;-88
2022/07/15 12:03:57;;;;;;;3.60;1.80;;;22.60;40.20;;;;;;4996005;28;20462;-87
2022/07/15 12:06:32;;;;;;;2.77;1.80;;;22.70;40.60;;;;;;4997329;28;20411;-87
2022/07/15 12:09:00;;;;;;;3.30;1.80;;;22.80;40.50;;;;;;5007702;28;20464;-88
2022/07/15 12:11:33;;;;;;;2.93;2.10;;;22.80;40.40;;;;;;5015426;28;20417;-86
2022/07/15 12:14:01;;;;;;;3.77;2.13;;;22.50;40.90;;;;;;5019311;28;20448;-87
2022/07/15 12:16:29;;;;;;;2.57;1.73;;;22.60;41.40;;;;;;5020652;28;20425;-88
2022/07/15 12:18:56;;;;;;;5.37;1.80;;;22.60;41.50;;;;;;5023058;28;21028;-88
2022/07/15 12:21:23;;;;;;;3.93;2.03;;;22.70;40.80;;;;;;5013269;28;20425;-88
2022/07/15 12:24:20;;;;;;;5.47;2.40;;;22.80;40.20;;;;;;5014559;28;21018;-87
2022/07/15 12:26:54;;;;;;;4.00;1.87;;;22.80;40.10;;;;;;5012550;28;20425;-88
2022/07/15 12:29:31;;;;;;;2.47;1.80;;;23.10;41.30;;;;;;5012053;28;20449;-87
2022/07/15 12:32:12;;;;;;;2.73;1.90;;;23.30;40.30;;;;;;5013508;28;20417;-88
2022/07/15 12:34:49;;;;;;;4.57;1.87;;;23.30;40.70;;;;;;5001450;28;20425;-88
2022/07/15 12:37:17;;;;;;;3.70;1.77;;;23.40;40.80;;;;;;5013553;28;20417;-87
2022/07/15 12:40:06;;;;;;;3.03;1.70;;;23.60;41.40;;;;;;5014930;28;20523;-88
2022/07/15 12:42:38;;;;;;;6.57;1.93;;;23.90;41.70;;;;;;5013884;28;20516;-87
2022/07/15 12:45:21;;;;;;;2.83;1.70;;;24.40;39.50;;;;;;5013876;28;20479;-88
2022/07/15 12:48:07;;;;;;;3.83;2.00;;;24.70;39.50;;;;;;5013364;28;20526;-88
2022/07/15 12:50:50;;;;;;;2.90;1.77;;;24.00;39.60;;;;;;5015071;28;20441;-88
2022/07/15 12:53:18;;;;;;;2.10;1.50;;;23.70;40.90;;;;;;5014245;28;20416;-88
2022/07/15 12:55:46;;;;;;;2.73;1.50;;;23.70;41.00;;;;;;5014143;28;20463;-88
2022/07/15 12:58:17;;;;;;;2.83;1.83;;;23.60;40.30;;;;;;5008996;28;20431;-88
2022/07/15 13:00:45;;;;;;;2.37;1.60;;;23.10;40.70;;;;;;5015262;28;20426;-88
2022/07/15 13:03:19;;;;;;;4.03;1.53;;;23.10;39.40;;;;;;5022258;28;20468;-87
2022/07/15 13:05:51;;;;;;;2.90;1.70;;;23.10;40.50;;;;;;5016075;28;20830;-88
2022/07/15 13:08:20;;;;;;;2.80;1.60;;;22.80;42.60;;;;;;5013443;28;20784;-87
2022/07/15 13:10:50;;;;;;;3.33;1.77;;;23.10;41.70;;;;;;4995084;28;20422;-88